首页
METAR-TAF:

METAR-TAF

机场 :

Hayden, 科羅拉多州, 美国

纬度: 40-29N, 经度: 107-13W, 海拔: 2012米

当前天气观测

该预报发布于32分钟前的15:27 UTC
风速11节,风向西
温度 -2°C
湿度 86%
气压 1019 hPa
能見度: 14.5公里
散云层高于2500英尺
阴天层高于7000英尺
小雪

METAR: KHDN 131527Z AUTO 28011KT 9SM -SN SCT025 OVC070 M02/M04 A3009 RMK AO2 P0000 FZRANO

时间: 08:59 (15:59 UTC)

预报

该预报发布于1小时和35分钟前的14:24 UTC
预报有效从13日的 14点(UTC)到 14日的 12点(UTC)
风速6节,风向西转西北
能見度: 10公里
散云层高于800英尺
多云层高于4000英尺
阴天层高于7000英尺
附近有阵雨
短暂存在
从 13日的 14点(UTC)到 13日的 16点(UTC)
风速15节,风向西,有时为25节阵风
能見度: 3.2公里
多云层高于800英尺
阴天层高于2000英尺
小阵雪, 轻雾
从 13日的 1600点(UTC)
风速17节,风向西,有时为28节阵风
能見度: 10公里
散云层高于2800英尺
多云层高于3500英尺
附近有阵雨
从 14日的 0300点(UTC)
风速4节,风向多变
能見度: 4.8公里
散云层高于1400英尺
阴天层高于3000英尺
小阵雪, 轻雾

TAF: KHDN 131424Z 1314/1412 30006KT P6SM VCSH SCT008 BKN040 OVC070 WS020/30040KT TEMPO 1314/1316 28015G25KT 2SM -SHSN BR BKN008 OVC020 FM131600 28017G28KT P6SM VCSH SCT028 BKN035 FM140300 VRB04KT 3SM -SHSN BR SCT014 OVC030

超过4000个机场的气象观测和天气预报(METAR&TAF报告)。

可查询的气象台以黄色和红色小点在地图上表示。

将鼠标移到小点上方,可查看气象台名称。

然后点击查看天气观测和预报。

如需切换地图:点击带黑十字的绿色按钮放大地图;点击带横线的绿色按钮缩小地图;或者点击绿色箭头查看邻近地区的地图。


METAR-TAF: